Time;durP1;ratioP1;P1;durP2;ratioP2;P2;SDS_P1;SDS_P2;PMS_P1;PMS_P2;Temp;Humidity;BMP_temperature;BMP_pressure;BME280_temperature;BME280_humidity;BME280_pressure;Samples;Min_cycle;Max_cycle;Signal;HPM_P1;HPM_P2
2022/05/19 00:01:25;;;;;;;10.20;8.67;;;20.10;99.90;;;;;;5033979;28;20423;-69
2022/05/19 00:03:50;;;;;;;8.33;7.63;;;20.10;99.90;;;;;;5033917;28;20460;-64
2022/05/19 00:06:16;;;;;;;8.83;7.90;;;20.00;99.90;;;;;;5033970;28;20747;-69
2022/05/19 00:08:45;;;;;;;9.00;8.30;;;20.00;99.90;;;;;;5031980;28;20206;-69
2022/05/19 00:11:16;;;;;;;8.83;7.93;;;20.00;99.90;;;;;;5033862;28;20425;-63
2022/05/19 00:13:42;;;;;;;10.40;7.87;;;20.00;99.90;;;;;;5034178;28;20425;-63
2022/05/19 00:16:08;;;;;;;8.33;7.63;;;20.00;99.90;;;;;;5033836;28;20426;-63
2022/05/19 00:18:36;;;;;;;8.50;7.83;;;19.90;99.90;;;;;;5032765;28;20425;-65
2022/05/19 00:21:02;;;;;;;15.47;7.97;;;19.90;99.90;;;;;;5033631;28;20431;-69
2022/05/19 00:23:28;;;;;;;8.03;7.43;;;19.90;99.90;;;;;;5032690;28;20407;-63
2022/05/19 00:25:54;;;;;;;9.20;8.40;;;19.80;99.90;;;;;;5031753;28;20449;-69
2022/05/19 00:28:20;;;;;;;8.20;7.50;;;19.80;99.90;;;;;;5032790;28;20195;-69
2022/05/19 00:30:46;;;;;;;13.00;8.60;;;19.70;99.90;;;;;;5033413;28;20413;-69
2022/05/19 00:33:13;;;;;;;8.40;7.73;;;19.80;99.90;;;;;;5033866;28;20484;-64
2022/05/19 00:35:40;;;;;;;9.13;8.43;;;19.70;99.90;;;;;;5033653;28;20743;-68
2022/05/19 00:38:07;;;;;;;12.03;8.80;;;19.70;99.90;;;;;;5032806;28;20919;-63
2022/05/19 00:40:33;;;;;;;10.20;9.27;;;19.70;99.90;;;;;;5033242;28;20461;-69
2022/05/19 00:42:59;;;;;;;11.07;8.23;;;19.60;99.90;;;;;;5032089;28;20483;-70
2022/05/19 00:45:29;;;;;;;8.50;7.77;;;19.60;99.90;;;;;;5033092;28;20425;-69
2022/05/19 00:48:05;;;;;;;8.43;7.73;;;19.60;99.90;;;;;;5032633;28;20493;-64
2022/05/19 00:50:55;;;;;;;9.13;8.43;;;19.60;99.90;;;;;;5033295;28;20421;-64
2022/05/19 00:53:28;;;;;;;9.40;8.50;;;19.60;99.90;;;;;;5033251;28;20525;-69
2022/05/19 00:55:56;;;;;;;12.13;8.30;;;19.60;99.90;;;;;;5033151;28;20509;-64
2022/05/19 00:58:33;;;;;;;9.00;8.30;;;19.60;99.90;;;;;;5032357;28;20788;-63
2022/05/19 01:00:59;;;;;;;9.37;8.57;;;19.50;99.90;;;;;;5031890;28;20442;-69
2022/05/19 01:03:33;;;;;;;10.40;9.50;;;19.50;99.90;;;;;;5033163;28;20984;-69
2022/05/19 01:06:06;;;;;;;8.70;8.00;;;19.50;99.90;;;;;;5033097;28;20517;-64
2022/05/19 01:08:38;;;;;;;8.90;7.63;;;19.50;99.90;;;;;;5032256;28;20446;-64
2022/05/19 01:11:06;;;;;;;9.93;9.00;;;19.50;99.90;;;;;;5033032;28;20418;-70
2022/05/19 01:13:34;;;;;;;8.60;7.90;;;19.50;99.90;;;;;;5033214;28;20414;-63
2022/05/19 01:16:00;;;;;;;9.57;8.67;;;19.50;99.90;;;;;;5032980;28;20434;-63
2022/05/19 01:18:28;;;;;;;8.03;7.23;;;19.50;99.90;;;;;;5031099;28;20470;-63
2022/05/19 01:20:55;;;;;;;20.60;9.23;;;19.50;99.90;;;;;;5032519;28;20429;-69
2022/05/19 01:23:36;;;;;;;8.67;7.57;;;19.40;99.90;;;;;;5033036;28;20413;-65
2022/05/19 01:26:28;;;;;;;8.93;8.13;;;19.40;99.90;;;;;;5032766;28;20436;-64
2022/05/19 01:29:00;;;;;;;8.53;7.73;;;19.30;99.90;;;;;;5030508;28;20459;-64
2022/05/19 01:31:32;;;;;;;10.20;8.83;;;19.30;99.90;;;;;;5032899;28;20501;-69
2022/05/19 01:33:59;;;;;;;9.37;7.80;;;19.30;99.90;;;;;;5032789;28;20406;-64
2022/05/19 01:39:57;;;;;;;8.10;7.40;;;19.20;99.90;;;;;;5036717;28;20481;-64
2022/05/19 01:42:52;;;;;;;8.13;7.47;;;19.10;99.90;;;;;;5037042;28;20402;-64
2022/05/19 01:45:40;;;;;;;11.77;8.07;;;19.10;99.90;;;;;;5035677;28;20437;-64
2022/05/19 01:48:28;;;;;;;7.67;7.07;;;19.00;99.90;;;;;;5035763;28;20418;-69
2022/05/19 01:51:01;;;;;;;8.83;7.93;;;18.90;99.90;;;;;;5036576;28;20422;-64
2022/05/19 01:53:58;;;;;;;8.37;7.57;;;18.80;99.90;;;;;;5036325;28;20401;-69
2022/05/19 01:56:33;;;;;;;9.30;8.40;;;18.80;99.90;;;;;;5036074;28;20430;-63
2022/05/19 01:59:23;;;;;;;13.03;8.93;;;18.70;99.90;;;;;;5036489;28;20465;-63
2022/05/19 02:02:06;;;;;;;8.83;7.93;;;18.70;99.90;;;;;;5029642;28;20430;-63
2022/05/19 02:05:13;;;;;;;8.00;7.20;;;18.70;99.90;;;;;;5036261;28;20511;-64
2022/05/19 02:07:42;;;;;;;8.17;7.47;;;18.70;99.90;;;;;;5035394;28;20543;-66
2022/05/19 02:10:17;;;;;;;9.00;8.30;;;18.70;99.90;;;;;;5036198;28;20421;-68
2022/05/19 02:12:45;;;;;;;9.60;8.73;;;18.70;99.90;;;;;;5035933;28;20424;-63
2022/05/19 02:15:14;;;;;;;9.17;7.20;;;18.60;99.90;;;;;;5034876;28;20449;-64
2022/05/19 02:17:42;;;;;;;7.33;6.73;;;18.60;99.90;;;;;;5035176;28;20430;-69
2022/05/19 02:20:11;;;;;;;8.73;7.93;;;18.50;99.90;;;;;;5035873;28;20493;-63
2022/05/19 02:22:39;;;;;;;9.20;7.33;;;18.50;99.90;;;;;;5036116;28;20468;-69
2022/05/19 02:25:19;;;;;;;7.97;7.37;;;18.40;99.90;;;;;;5035795;28;20431;-69
2022/05/19 02:28:01;;;;;;;7.77;7.07;;;18.30;99.90;;;;;;5034489;28;20414;-64
2022/05/19 02:30:32;;;;;;;7.77;6.93;;;18.30;99.90;;;;;;5034771;28;20438;-68
2022/05/19 02:32:58;;;;;;;6.60;6.10;;;18.20;99.90;;;;;;5036058;28;20509;-64
2022/05/19 02:35:24;;;;;;;8.03;7.33;;;18.10;99.90;;;;;;5035695;28;20422;-64
2022/05/19 02:37:54;;;;;;;7.37;6.70;;;18.10;99.90;;;;;;5034761;28;20461;-64
2022/05/19 02:40:22;;;;;;;8.07;7.37;;;18.00;99.90;;;;;;5035854;28;20469;-69
2022/05/19 02:42:48;;;;;;;9.30;8.40;;;17.90;99.90;;;;;;5035943;28;20937;-63
2022/05/19 02:45:16;;;;;;;7.80;7.10;;;17.90;99.90;;;;;;5035612;28;20453;-64
2022/05/19 02:47:43;;;;;;;10.83;9.70;;;17.80;99.90;;;;;;5032099;28;20508;-64
2022/05/19 02:50:10;;;;;;;9.20;7.57;;;17.80;99.90;;;;;;5035456;28;20407;-70
2022/05/19 02:52:36;;;;;;;9.97;8.97;;;17.80;99.90;;;;;;5035635;28;20415;-64
2022/05/19 02:55:02;;;;;;;9.37;8.50;;;17.80;99.90;;;;;;5035594;28;20399;-64
2022/05/19 02:57:31;;;;;;;14.20;8.77;;;17.70;99.90;;;;;;5034079;28;20176;-69
2022/05/19 02:59:58;;;;;;;9.10;8.30;;;17.70;99.90;;;;;;5035408;28;20493;-65
2022/05/19 03:02:24;;;;;;;9.53;8.47;;;17.70;99.90;;;;;;5034727;28;20433;-70
2022/05/19 03:04:50;;;;;;;8.00;7.20;;;17.70;99.90;;;;;;5034296;28;20468;-63
2022/05/19 03:07:16;;;;;;;9.70;7.50;;;17.60;99.90;;;;;;5034153;28;20525;-68
2022/05/19 03:09:42;;;;;;;8.90;8.03;;;17.60;99.90;;;;;;5035177;28;20513;-64
2022/05/19 03:12:12;;;;;;;7.80;7.03;;;17.60;99.90;;;;;;5034940;28;20198;-64
2022/05/19 03:14:38;;;;;;;8.30;7.60;;;17.50;99.90;;;;;;5035349;28;20492;-63
2022/05/19 03:17:06;;;;;;;9.30;8.40;;;17.50;99.90;;;;;;5034140;28;20479;-63
2022/05/19 03:19:32;;;;;;;8.83;7.97;;;17.40;99.90;;;;;;5034983;28;20454;-63
2022/05/19 03:21:57;;;;;;;9.83;9.00;;;17.40;99.90;;;;;;5033165;28;20513;-64
2022/05/19 03:24:23;;;;;;;9.90;9.00;;;17.30;99.90;;;;;;5034712;28;20441;-68
2022/05/19 03:26:49;;;;;;;8.80;8.10;;;17.30;99.90;;;;;;5033978;28;20648;-64
2022/05/19 03:29:15;;;;;;;10.17;9.17;;;17.40;99.90;;;;;;5034905;28;20196;-69
2022/05/19 03:31:40;;;;;;;10.40;9.20;;;17.40;99.90;;;;;;5034856;28;20182;-65
2022/05/19 03:34:09;;;;;;;9.33;8.43;;;17.30;99.90;;;;;;5034684;28;20262;-69
2022/05/19 03:36:35;;;;;;;12.30;9.10;;;17.30;1.00;;;;;;5033773;28;20548;-64
2022/05/19 03:39:01;;;;;;;10.00;9.10;;;17.30;1.00;;;;;;5032703;28;20466;-64
2022/05/19 03:41:27;;;;;;;10.77;9.67;;;17.30;1.00;;;;;;5034716;28;20171;-64
2022/05/19 03:43:52;;;;;;;9.30;8.40;;;17.30;1.00;;;;;;5034540;28;20487;-69
2022/05/19 03:46:21;;;;;;;9.33;8.60;;;17.30;1.00;;;;;;5034399;28;20167;-70
2022/05/19 03:48:47;;;;;;;10.07;8.83;;;17.20;1.00;;;;;;5033485;28;20199;-68
2022/05/19 03:51:24;;;;;;;9.87;8.83;;;17.20;1.00;;;;;;5034780;28;20415;-68
2022/05/19 03:53:51;;;;;;;11.63;9.63;;;17.20;1.00;;;;;;5033226;28;20841;-64
2022/05/19 03:56:19;;;;;;;11.87;9.40;;;17.30;1.00;;;;;;5034066;28;20461;-69
2022/05/19 03:58:45;;;;;;;9.97;9.07;;;17.30;1.00;;;;;;5032507;28;20525;-69
2022/05/19 04:01:14;;;;;;;10.17;9.13;;;17.30;1.00;;;;;;5034485;28;20783;-63
2022/05/19 04:03:40;;;;;;;12.90;10.00;;;17.30;1.00;;;;;;5034047;28;20429;-64
2022/05/19 04:06:06;;;;;;;12.17;9.40;;;17.30;1.00;;;;;;5034340;28;20394;-69
2022/05/19 04:08:33;;;;;;;14.60;12.23;;;17.30;1.00;;;;;;5032992;28;20529;-65
2022/05/19 04:10:58;;;;;;;14.90;13.40;;;17.30;1.00;;;;;;5033285;28;20506;-69
2022/05/19 04:13:25;;;;;;;11.43;10.40;;;17.30;1.00;;;;;;5033885;28;20868;-63
2022/05/19 04:15:50;;;;;;;11.90;10.70;;;17.30;1.00;;;;;;5033609;28;20410;-69
2022/05/19 04:18:17;;;;;;;11.00;10.00;;;17.30;1.00;;;;;;5032847;28;20442;-63
2022/05/19 04:20:43;;;;;;;10.37;9.37;;;17.30;1.00;;;;;;5033775;28;20306;-70
2022/05/19 04:23:10;;;;;;;11.27;10.23;;;17.30;1.00;;;;;;5033566;28;20418;-69
2022/05/19 04:25:36;;;;;;;11.17;10.00;;;17.30;1.00;;;;;;5033836;28;20441;-69
2022/05/19 04:28:09;;;;;;;11.33;10.23;;;17.40;1.00;;;;;;5031597;28;20442;-69
2022/05/19 04:30:34;;;;;;;10.07;9.07;;;17.40;1.00;;;;;;5033554;28;20458;-65
2022/05/19 04:33:01;;;;;;;12.07;10.93;;;17.50;1.00;;;;;;5031547;28;20843;-63
2022/05/19 04:35:26;;;;;;;11.00;10.00;;;17.60;1.00;;;;;;5034103;28;20180;-64
2022/05/19 04:37:57;;;;;;;11.97;10.73;;;17.60;1.00;;;;;;5032412;28;20831;-64
2022/05/19 04:40:23;;;;;;;13.03;10.20;;;17.70;1.00;;;;;;5033607;28;20195;-64
2022/05/19 04:42:49;;;;;;;11.83;10.83;;;17.80;1.00;;;;;;5033214;28;20415;-65
2022/05/19 04:45:17;;;;;;;14.97;10.77;;;17.90;1.00;;;;;;5033655;28;20437;-69
2022/05/19 04:47:43;;;;;;;10.70;9.80;;;18.00;1.00;;;;;;5031322;28;20446;-64
2022/05/19 04:50:10;;;;;;;11.67;10.57;;;18.20;1.00;;;;;;5033092;28;20417;-64
2022/05/19 04:52:36;;;;;;;13.37;10.50;;;18.20;1.00;;;;;;5033372;28;20446;-64
2022/05/19 04:55:04;;;;;;;12.67;10.93;;;18.30;1.00;;;;;;5033466;28;20420;-64
2022/05/19 04:57:31;;;;;;;11.37;10.30;;;18.40;1.00;;;;;;5032274;28;20414;-69
2022/05/19 04:59:57;;;;;;;14.90;10.60;;;18.50;1.00;;;;;;5033443;28;20465;-64
2022/05/19 05:02:23;;;;;;;11.37;10.27;;;18.60;1.00;;;;;;5033174;28;20770;-64
2022/05/19 05:04:49;;;;;;;13.63;11.13;;;18.70;1.00;;;;;;5032521;28;20753;-70
2022/05/19 05:07:14;;;;;;;13.37;10.67;;;18.80;1.00;;;;;;5031742;28;20175;-70
2022/05/19 05:09:40;;;;;;;12.10;10.90;;;18.80;1.00;;;;;;5033368;28;20567;-64
2022/05/19 05:12:07;;;;;;;12.53;11.03;;;18.90;1.00;;;;;;5036990;28;20410;-68
2022/05/19 05:14:33;;;;;;;11.70;10.60;;;18.90;1.00;;;;;;5036237;28;20175;-69
2022/05/19 05:16:59;;;;;;;10.70;9.70;;;19.00;1.00;;;;;;5036429;28;20748;-64
2022/05/19 05:19:25;;;;;;;10.73;9.73;;;19.00;1.00;;;;;;5035659;28;20207;-64
2022/05/19 05:21:56;;;;;;;12.20;10.90;;;19.10;1.00;;;;;;5036012;28;20632;-63
2022/05/19 05:24:22;;;;;;;10.70;9.80;;;19.10;1.00;;;;;;5036776;28;20457;-64
2022/05/19 05:26:48;;;;;;;10.63;9.60;;;19.10;1.00;;;;;;5036073;28;21288;-64
2022/05/19 05:29:14;;;;;;;12.17;9.37;;;19.20;1.00;;;;;;5036956;28;20191;-64
2022/05/19 05:31:40;;;;;;;11.40;9.77;;;19.30;1.00;;;;;;5036811;28;20194;-64
2022/05/19 05:34:06;;;;;;;11.63;10.53;;;19.40;1.00;;;;;;5037193;28;20413;-69
2022/05/19 05:36:32;;;;;;;9.60;8.83;;;19.50;1.00;;;;;;5034851;28;20434;-65
2022/05/19 05:38:58;;;;;;;10.00;8.50;;;19.60;1.00;;;;;;5036741;28;20458;-69
2022/05/19 05:41:24;;;;;;;14.17;9.60;;;19.70;1.00;;;;;;5036365;28;20251;-74
2022/05/19 05:43:50;;;;;;;11.70;10.53;;;19.80;1.00;;;;;;5037130;28;20182;-73
2022/05/19 05:46:30;;;;;;;10.33;9.33;;;19.90;1.00;;;;;;5035147;28;20489;-72
2022/05/19 05:48:56;;;;;;;11.70;9.23;;;19.90;99.90;;;;;;5036960;28;20476;-67
2022/05/19 05:51:22;;;;;;;11.10;9.33;;;20.00;99.90;;;;;;5035486;28;20441;-67
2022/05/19 05:53:48;;;;;;;9.33;8.50;;;20.10;99.90;;;;;;5036793;28;20179;-67
2022/05/19 05:56:18;;;;;;;11.17;10.03;;;20.10;99.90;;;;;;5036959;28;20925;-63
2022/05/19 05:58:44;;;;;;;10.60;9.60;;;20.10;99.90;;;;;;5035371;28;20438;-69
2022/05/19 06:01:14;;;;;;;13.77;9.27;;;20.20;99.90;;;;;;5035283;28;20414;-64
2022/05/19 06:03:40;;;;;;;10.07;9.20;;;20.20;99.90;;;;;;5036021;28;20505;-63
2022/05/19 06:06:06;;;;;;;10.47;9.47;;;20.20;99.90;;;;;;5036524;28;20411;-69
2022/05/19 06:08:32;;;;;;;10.47;9.37;;;20.10;99.90;;;;;;5033879;28;20502;-69
2022/05/19 06:11:02;;;;;;;10.90;9.83;;;20.10;99.90;;;;;;5036385;28;20179;-63
2022/05/19 06:13:28;;;;;;;10.67;9.57;;;20.10;99.90;;;;;;5035927;28;20921;-68
2022/05/19 06:15:55;;;;;;;10.60;9.20;;;20.20;99.90;;;;;;5033152;28;20442;-64
2022/05/19 06:18:21;;;;;;;11.90;9.10;;;20.20;99.90;;;;;;5035113;28;20790;-69
2022/05/19 06:20:48;;;;;;;11.77;10.43;;;20.30;99.90;;;;;;5035947;28;20460;-64
2022/05/19 06:23:16;;;;;;;9.67;8.70;;;20.30;99.90;;;;;;5035759;28;20982;-69
2022/05/19 06:25:42;;;;;;;10.20;9.30;;;20.20;99.90;;;;;;5036063;28;20505;-64
2022/05/19 06:28:08;;;;;;;8.07;7.33;;;20.20;99.90;;;;;;5034782;28;20425;-64
2022/05/19 06:30:40;;;;;;;9.27;8.40;;;20.30;99.90;;;;;;5035320;28;20442;-64
2022/05/19 06:33:05;;;;;;;10.77;9.43;;;20.40;99.90;;;;;;5034942;28;20449;-69
2022/05/19 06:35:33;;;;;;;10.30;9.30;;;20.30;99.90;;;;;;5035002;28;20505;-69
2022/05/19 06:37:59;;;;;;;10.03;8.97;;;20.40;99.90;;;;;;5034852;28;20195;-64
2022/05/19 06:40:27;;;;;;;9.47;8.40;;;20.40;99.90;;;;;;5035490;28;20954;-69
2022/05/19 06:42:53;;;;;;;10.03;9.23;;;20.40;99.90;;;;;;5035683;28;20468;-69
2022/05/19 06:45:24;;;;;;;9.40;8.40;;;20.40;99.90;;;;;;5034834;28;20509;-64
2022/05/19 06:47:51;;;;;;;13.37;8.83;;;20.40;99.90;;;;;;5034438;28;20438;-68
2022/05/19 06:50:18;;;;;;;9.90;8.30;;;20.40;99.90;;;;;;5035552;28;20425;-65
2022/05/19 06:52:51;;;;;;;9.80;8.97;;;20.50;99.90;;;;;;5035545;28;20883;-69
2022/05/19 06:55:18;;;;;;;9.27;8.37;;;20.60;99.90;;;;;;5035706;28;20437;-69
2022/05/19 06:57:44;;;;;;;8.97;8.17;;;20.60;99.90;;;;;;5034478;28;20571;-69
2022/05/19 07:00:14;;;;;;;8.87;8.07;;;20.60;99.90;;;;;;5035494;28;20461;-64
2022/05/19 07:02:51;;;;;;;10.90;8.50;;;20.60;99.90;;;;;;5034531;28;20902;-64
2022/05/19 07:05:19;;;;;;;8.60;7.57;;;20.70;99.90;;;;;;5035384;28;20403;-64
2022/05/19 07:07:48;;;;;;;10.57;8.53;;;20.90;99.90;;;;;;5034439;28;20497;-64
2022/05/19 07:10:15;;;;;;;9.80;8.80;;;21.00;99.90;;;;;;5034775;28;20411;-69
2022/05/19 07:12:43;;;;;;;11.90;7.90;;;21.20;99.90;;;;;;5035421;28;20410;-69
2022/05/19 07:15:11;;;;;;;8.67;7.83;;;21.40;99.90;;;;;;5035269;28;20414;-64
2022/05/19 07:17:37;;;;;;;9.20;8.30;;;21.50;99.90;;;;;;5034309;28;20488;-63
2022/05/19 07:22:48;;;;;;;9.07;8.17;;;21.60;99.90;;;;;;5035145;28;20406;-70
2022/05/19 07:25:14;;;;;;;9.50;7.60;;;21.70;99.90;;;;;;5034914;28;20430;-69
2022/05/19 07:27:40;;;;;;;7.50;6.80;;;21.80;99.90;;;;;;5033595;28;20194;-64
2022/05/19 07:30:07;;;;;;;7.60;6.90;;;21.90;99.90;;;;;;5050477;28;20179;-69
2022/05/19 07:32:32;;;;;;;8.27;6.83;;;22.00;99.90;;;;;;5034406;28;20414;-69
2022/05/19 07:34:58;;;;;;;8.30;6.33;;;22.00;99.90;;;;;;5033189;28;20415;-64
2022/05/19 07:37:25;;;;;;;8.23;7.30;;;22.00;99.90;;;;;;5032756;28;20334;-69
2022/05/19 07:39:52;;;;;;;6.80;6.20;;;22.10;99.90;;;;;;5034678;28;20500;-70
2022/05/19 07:42:18;;;;;;;8.23;6.30;;;22.30;99.90;;;;;;5034322;28;20450;-64
2022/05/19 07:44:44;;;;;;;20.00;6.83;;;22.40;99.90;;;;;;5034495;28;20438;-64
2022/05/19 07:47:10;;;;;;;7.80;6.33;;;22.50;99.90;;;;;;5033882;28;20435;-69
2022/05/19 07:49:36;;;;;;;7.07;6.47;;;22.60;99.90;;;;;;5034708;28;20184;-64
2022/05/19 07:52:03;;;;;;;7.50;6.87;;;22.80;99.90;;;;;;5034646;28;20733;-70
2022/05/19 07:54:30;;;;;;;9.93;6.07;;;22.90;99.90;;;;;;5033319;28;20186;-64
2022/05/19 07:56:57;;;;;;;6.53;5.93;;;22.90;99.90;;;;;;5032361;28;20782;-70
2022/05/19 07:59:23;;;;;;;7.60;6.27;;;23.00;99.90;;;;;;5034001;28;20818;-64
2022/05/19 08:01:49;;;;;;;6.33;5.73;;;23.10;99.90;;;;;;5034233;28;20740;-64
2022/05/19 08:04:15;;;;;;;6.33;5.83;;;23.20;99.90;;;;;;5034180;28;20457;-65
2022/05/19 08:06:41;;;;;;;6.73;6.13;;;23.30;99.90;;;;;;5033417;28;20402;-69
2022/05/19 08:11:52;;;;;;;6.53;6.00;;;23.40;99.90;;;;;;5033173;28;20933;-70
2022/05/19 08:17:07;;;;;;;5.97;5.40;;;23.60;99.90;;;;;;5033290;28;20418;-69
2022/05/19 08:19:33;;;;;;;5.20;4.80;;;23.80;99.90;;;;;;5033544;28;20460;-64
2022/05/19 08:21:59;;;;;;;5.87;5.47;;;23.90;99.90;;;;;;5033428;28;20410;-64
2022/05/19 08:24:26;;;;;;;5.80;5.30;;;24.00;99.90;;;;;;5033429;28;20521;-69
2022/05/19 08:26:52;;;;;;;6.33;5.00;;;24.20;99.90;;;;;;5030299;28;20541;-70
2022/05/19 08:29:21;;;;;;;7.43;6.00;;;24.40;99.90;;;;;;5033987;28;20444;-64
2022/05/19 08:31:47;;;;;;;5.40;5.00;;;24.60;99.90;;;;;;5032241;28;20419;-69
2022/05/19 08:34:14;;;;;;;6.00;5.27;;;24.70;99.90;;;;;;5031134;28;20448;-71
2022/05/19 08:36:44;;;;;;;14.20;6.00;;;24.80;99.90;;;;;;5031197;28;21224;-66
2022/05/19 08:39:10;;;;;;;5.53;5.03;;;24.90;99.90;;;;;;5033558;28;20488;-64
2022/05/19 08:41:58;;;;;;;5.83;5.43;;;25.00;99.90;;;;;;5033481;28;20426;-63
2022/05/19 08:44:32;;;;;;;6.20;4.90;;;25.30;99.90;;;;;;5033221;28;20513;-63
2022/05/19 08:46:59;;;;;;;5.57;5.10;;;25.50;99.90;;;;;;5031851;28;20427;-64
2022/05/19 08:49:34;;;;;;;5.73;5.20;;;25.60;99.90;;;;;;5032562;28;20441;-64
2022/05/19 08:52:05;;;;;;;5.27;4.87;;;25.80;99.90;;;;;;5030623;28;20452;-64
2022/05/19 08:54:32;;;;;;;5.30;4.90;;;25.90;99.90;;;;;;5032972;28;20756;-63
2022/05/19 08:57:10;;;;;;;5.97;4.63;;;26.00;99.90;;;;;;5032382;28;20822;-70
2022/05/19 09:00:07;;;;;;;7.27;5.33;;;26.00;99.90;;;;;;5033316;28;20540;-64
2022/05/19 09:02:56;;;;;;;5.00;4.60;;;26.10;99.90;;;;;;5033288;28;20433;-69
2022/05/19 09:05:30;;;;;;;6.60;5.73;;;26.20;99.90;;;;;;5032386;28;20423;-67
2022/05/19 09:07:59;;;;;;;7.37;5.20;;;26.40;99.90;;;;;;5030405;28;20437;-70
2022/05/19 09:11:02;;;;;;;5.30;4.23;;;26.30;99.90;;;;;;5031666;28;20426;-71
2022/05/19 09:13:34;;;;;;;4.80;4.13;;;26.10;99.90;;;;;;5033418;28;20500;-64
2022/05/19 09:16:22;;;;;;;5.13;4.20;;;26.10;99.90;;;;;;5030168;28;20433;-71
2022/05/19 09:19:21;;;;;;;5.00;4.50;;;26.30;99.90;;;;;;5032114;28;20525;-66
2022/05/19 09:21:58;;;;;;;4.50;4.20;;;26.60;99.90;;;;;;5016167;28;20526;-64
2022/05/19 09:24:24;;;;;;;5.43;5.03;;;26.60;99.90;;;;;;5028843;28;20503;-71
2022/05/19 09:26:55;;;;;;;5.87;4.77;;;26.60;99.90;;;;;;5030758;28;20461;-65
2022/05/19 09:29:33;;;;;;;4.70;4.40;;;26.60;99.90;;;;;;5032362;28;20438;-70
2022/05/19 09:32:45;;;;;;;6.20;5.70;;;26.90;99.90;;;;;;5023225;28;20954;-64
2022/05/19 09:35:29;;;;;;;5.03;4.63;;;27.10;99.90;;;;;;5029189;28;20438;-65
2022/05/19 09:38:12;;;;;;;4.77;4.47;;;27.40;99.90;;;;;;5030663;28;20434;-71
2022/05/19 09:40:41;;;;;;;4.90;4.50;;;27.80;99.90;;;;;;5032515;28;20477;-71
2022/05/19 09:43:27;;;;;;;4.80;4.30;;;28.10;99.90;;;;;;5030469;28;20441;-69
2022/05/19 09:46:14;;;;;;;4.60;4.20;;;28.10;99.80;;;;;;5030945;28;20421;-64
2022/05/19 09:49:01;;;;;;;4.50;4.10;;;28.30;98.50;;;;;;5030289;28;20433;-64
2022/05/19 09:51:32;;;;;;;4.60;4.30;;;28.60;99.70;;;;;;5032635;28;20912;-70
2022/05/19 09:54:02;;;;;;;4.73;4.40;;;28.70;98.60;;;;;;5032759;28;20921;-69
2022/05/19 09:56:42;;;;;;;5.27;4.70;;;28.90;98.70;;;;;;5032979;28;20418;-69
2022/05/19 09:59:14;;;;;;;9.77;4.90;;;29.00;98.70;;;;;;5035425;28;20465;-69
2022/05/19 10:01:47;;;;;;;4.60;4.20;;;29.30;99.90;;;;;;5035588;28;21007;-70
2022/05/19 10:04:24;;;;;;;6.90;4.73;;;29.60;97.00;;;;;;5036577;28;20391;-64
2022/05/19 10:06:56;;;;;;;5.40;4.90;;;29.50;91.20;;;;;;5035404;28;20429;-64
2022/05/19 10:09:29;;;;;;;5.60;4.80;;;29.50;90.50;;;;;;5036405;28;20767;-70
2022/05/19 10:12:12;;;;;;;7.67;6.00;;;29.60;86.80;;;;;;5036154;28;20417;-70
2022/05/19 10:14:40;;;;;;;5.33;3.90;;;29.50;83.80;;;;;;5036382;28;20398;-64
2022/05/19 10:17:32;;;;;;;5.93;5.37;;;29.50;82.40;;;;;;5033791;28;20941;-71
2022/05/19 10:20:18;;;;;;;7.53;5.17;;;29.00;75.20;;;;;;5035165;28;20548;-65
2022/05/19 10:23:19;;;;;;;6.00;5.50;;;28.90;73.00;;;;;;5036230;28;20925;-65
2022/05/19 10:25:47;;;;;;;5.33;4.93;;;28.30;66.30;;;;;;5035804;28;20532;-64
2022/05/19 10:32:12;;;;;;;5.70;4.90;;;28.50;71.60;;;;;;5034782;28;20484;-65
2022/05/19 10:34:40;;;;;;;5.50;4.83;;;28.60;73.10;;;;;;5035752;28;20821;-64
2022/05/19 10:37:24;;;;;;;6.10;5.60;;;28.50;69.80;;;;;;5035052;28;20398;-71
2022/05/19 10:40:43;;;;;;;7.53;5.27;;;28.40;70.80;;;;;;5034884;28;20450;-64
2022/05/19 10:43:42;;;;;;;6.60;5.60;;;28.40;71.20;;;;;;5037726;28;20464;-71
2022/05/19 10:46:13;;;;;;;8.03;7.23;;;28.50;71.70;;;;;;5035718;28;20898;-71
2022/05/19 10:48:56;;;;;;;6.40;5.67;;;28.30;72.90;;;;;;5033687;28;20457;-64
2022/05/19 10:51:24;;;;;;;6.87;5.33;;;28.60;80.40;;;;;;5035717;28;20390;-71
2022/05/19 10:54:24;;;;;;;6.40;5.60;;;29.20;84.30;;;;;;5035026;28;20493;-70
2022/05/19 10:57:30;;;;;;;7.80;6.60;;;29.60;81.00;;;;;;5033936;28;21204;-70
2022/05/19 11:00:02;;;;;;;8.37;6.67;;;29.50;79.20;;;;;;5035525;28;20544;-64
2022/05/19 11:02:45;;;;;;;7.07;6.27;;;29.50;80.80;;;;;;5035305;28;20437;-71
2022/05/19 11:05:39;;;;;;;8.73;6.40;;;29.50;83.00;;;;;;5032965;28;20418;-64
2022/05/19 11:08:22;;;;;;;8.10;5.43;;;29.20;79.50;;;;;;5033108;28;20411;-64
2022/05/19 11:11:04;;;;;;;7.40;6.70;;;29.30;80.60;;;;;;5034723;28;20416;-64
2022/05/19 11:13:56;;;;;;;6.90;6.30;;;29.30;75.90;;;;;;5035333;28;20393;-64
2022/05/19 11:16:56;;;;;;;7.20;6.60;;;29.10;83.20;;;;;;5014985;28;20415;-65
2022/05/19 11:19:38;;;;;;;7.63;6.93;;;29.30;79.80;;;;;;5032657;28;20804;-70
2022/05/19 11:22:17;;;;;;;7.93;6.63;;;29.60;79.80;;;;;;5034904;28;20452;-68
2022/05/19 11:28:11;;;;;;;7.20;5.90;;;29.90;75.20;;;;;;5033823;28;20438;-65
2022/05/19 11:30:45;;;;;;;9.10;6.70;;;30.30;78.00;;;;;;5033639;28;20414;-64
2022/05/19 11:33:16;;;;;;;7.70;6.83;;;30.40;75.80;;;;;;5034862;28;20421;-70
2022/05/19 11:35:46;;;;;;;8.10;7.17;;;30.50;75.00;;;;;;5032609;28;20466;-65
2022/05/19 11:38:26;;;;;;;6.80;6.10;;;30.60;75.20;;;;;;5031927;28;20946;-70
2022/05/19 11:41:24;;;;;;;7.50;6.80;;;30.70;75.40;;;;;;5034852;28;20464;-64
2022/05/19 11:43:58;;;;;;;7.03;6.40;;;30.40;70.00;;;;;;5033622;28;20418;-70
2022/05/19 11:47:00;;;;;;;6.87;6.30;;;30.00;68.40;;;;;;5034240;28;20484;-71
2022/05/19 11:55:37;;;;;;;6.87;6.20;;;29.50;67.20;;;;;;5033819;28;20432;-70
2022/05/19 11:58:20;;;;;;;7.47;6.87;;;29.30;66.50;;;;;;5032993;28;20532;-70
2022/05/19 12:01:07;;;;;;;7.20;6.17;;;29.20;69.40;;;;;;5033151;28;20449;-70
2022/05/19 12:03:57;;;;;;;7.87;6.60;;;29.30;71.30;;;;;;5034195;28;20472;-64
2022/05/19 12:06:33;;;;;;;6.10;5.60;;;29.80;75.40;;;;;;5031486;28;21042;-64
2022/05/19 12:09:23;;;;;;;6.30;5.80;;;30.50;84.30;;;;;;5033417;28;20532;-65
2022/05/19 12:11:52;;;;;;;5.70;5.20;;;31.00;76.90;;;;;;5014157;28;20784;-69
2022/05/19 12:14:31;;;;;;;7.70;6.83;;;31.50;77.00;;;;;;5014130;28;20399;-65
2022/05/19 12:17:00;;;;;;;7.03;6.30;;;31.70;70.50;;;;;;5032933;28;20454;-70
2022/05/19 12:19:31;;;;;;;8.53;6.57;;;32.20;70.60;;;;;;5031147;28;20834;-71
2022/05/19 12:21:57;;;;;;;6.93;6.33;;;32.50;65.80;;;;;;5033313;28;21016;-70
2022/05/19 12:24:52;;;;;;;5.70;5.20;;;32.20;58.90;;;;;;5030598;28;20477;-64
2022/05/19 12:27:23;;;;;;;5.90;5.40;;;31.50;45.70;;;;;;5033094;28;20163;-71
2022/05/19 12:33:16;;;;;;;7.07;6.13;;;30.60;43.20;;;;;;5033819;28;20412;-71
2022/05/19 12:35:47;;;;;;;8.43;7.37;;;30.30;44.00;;;;;;5033782;28;20390;-71
2022/05/19 12:38:44;;;;;;;7.80;6.73;;;30.00;47.20;;;;;;5032511;28;21012;-71
2022/05/19 12:41:32;;;;;;;6.40;5.80;;;29.90;52.90;;;;;;5031819;28;20572;-70
2022/05/19 12:44:30;;;;;;;11.67;9.40;;;29.60;64.60;;;;;;5033366;28;20942;-64
2022/05/19 12:47:22;;;;;;;9.83;8.83;;;29.40;63.50;;;;;;5032374;28;20899;-64
2022/05/19 12:50:10;;;;;;;9.83;8.80;;;28.90;73.80;;;;;;5031637;28;20426;-64
2022/05/19 12:52:56;;;;;;;13.53;12.17;;;28.30;77.00;;;;;;5033183;28;20414;-64
2022/05/19 12:55:27;;;;;;;15.80;13.50;;;27.60;78.60;;;;;;5033692;28;20982;-70
2022/05/19 12:57:55;;;;;;;15.37;13.77;;;26.90;80.60;;;;;;5031476;28;20461;-70
2022/05/19 13:00:32;;;;;;;15.20;13.60;;;26.10;89.30;;;;;;5033574;28;20437;-70
2022/05/19 13:03:25;;;;;;;15.07;12.70;;;25.70;97.30;;;;;;5031877;28;20422;-63
2022/05/19 13:06:00;;;;;;;19.10;14.67;;;25.70;97.70;;;;;;5033408;28;20417;-70
2022/05/19 13:08:35;;;;;;;14.07;12.60;;;25.60;97.70;;;;;;5031497;28;20437;-63
2022/05/19 13:11:07;;;;;;;15.37;12.97;;;25.40;97.80;;;;;;5033444;28;20397;-64
2022/05/19 13:13:46;;;;;;;16.80;13.00;;;25.10;99.90;;;;;;5031983;28;21022;-69
2022/05/19 13:16:25;;;;;;;16.37;14.10;;;24.70;99.90;;;;;;5033269;28;20871;-64
2022/05/19 13:18:59;;;;;;;16.53;14.83;;;24.40;99.90;;;;;;5011658;28;20454;-69
2022/05/19 13:21:31;;;;;;;16.43;14.80;;;24.00;99.90;;;;;;5014011;28;20407;-65
2022/05/19 13:23:57;;;;;;;16.40;14.70;;;23.60;99.90;;;;;;5033188;28;20426;-69
2022/05/19 13:26:30;;;;;;;18.23;16.33;;;23.60;99.90;;;;;;5032604;28;20945;-64
2022/05/19 13:32:00;;;;;;;21.43;15.60;;;23.40;99.90;;;;;;5027968;28;20851;-63
2022/05/19 13:34:44;;;;;;;20.90;15.67;;;23.30;99.90;;;;;;5036414;28;20418;-69
2022/05/19 13:37:10;;;;;;;18.80;16.50;;;23.40;99.90;;;;;;5035799;28;20434;-64
2022/05/19 13:39:35;;;;;;;20.30;18.20;;;23.60;99.90;;;;;;5035850;28;20551;-69
2022/05/19 13:42:09;;;;;;;23.40;18.03;;;23.80;99.90;;;;;;5035773;28;20430;-69